sensor_id;sensor_type;location;lat;lon;timestamp;temperature;humidity
3334;DHT22;1679;50.392;8.008;2023-10-09T00:00:16;12.20;99.90
3334;DHT22;1679;50.392;8.008;2023-10-09T00:03:00;12.10;99.90
3334;DHT22;1679;50.392;8.008;2023-10-09T00:05:30;12.10;99.90
3334;DHT22;1679;50.392;8.008;2023-10-09T00:08:15;12.10;99.90
3334;DHT22;1679;50.392;8.008;2023-10-09T00:10:57;12.00;99.90
3334;DHT22;1679;50.392;8.008;2023-10-09T00:13:46;12.00;99.90
3334;DHT22;1679;50.392;8.008;2023-10-09T00:16:19;12.00;99.90
3334;DHT22;1679;50.392;8.008;2023-10-09T00:19:05;12.00;99.90
3334;DHT22;1679;50.392;8.008;2023-10-09T00:21:46;12.00;99.90
3334;DHT22;1679;50.392;8.008;2023-10-09T00:24:12;12.10;99.90
3334;DHT22;1679;50.392;8.008;2023-10-09T00:26:52;12.00;99.90
3334;DHT22;1679;50.392;8.008;2023-10-09T00:29:21;12.00;99.90
3334;DHT22;1679;50.392;8.008;2023-10-09T00:31:55;12.00;99.90
3334;DHT22;1679;50.392;8.008;2023-10-09T00:34:42;12.00;99.90
3334;DHT22;1679;50.392;8.008;2023-10-09T00:37:10;12.00;99.90
3334;DHT22;1679;50.392;8.008;2023-10-09T00:39:42;12.00;99.90
3334;DHT22;1679;50.392;8.008;2023-10-09T00:42:13;12.00;99.90
3334;DHT22;1679;50.392;8.008;2023-10-09T00:44:41;12.00;99.90
3334;DHT22;1679;50.392;8.008;2023-10-09T00:47:14;12.00;99.90
3334;DHT22;1679;50.392;8.008;2023-10-09T00:50:06;12.00;99.90
3334;DHT22;1679;50.392;8.008;2023-10-09T00:52:44;12.00;99.90
3334;DHT22;1679;50.392;8.008;2023-10-09T00:55:20;12.00;99.90
3334;DHT22;1679;50.392;8.008;2023-10-09T00:58:12;11.90;99.90
3334;DHT22;1679;50.392;8.008;2023-10-09T01:00:43;11.90;99.90
3334;DHT22;1679;50.392;8.008;2023-10-09T01:03:09;11.90;99.90
3334;DHT22;1679;50.392;8.008;2023-10-09T01:05:59;11.80;99.90
3334;DHT22;1679;50.392;8.008;2023-10-09T01:08:40;11.80;99.90
3334;DHT22;1679;50.392;8.008;2023-10-09T01:11:07;11.90;99.90
3334;DHT22;1679;50.392;8.008;2023-10-09T01:13:40;11.80;99.90
3334;DHT22;1679;50.392;8.008;2023-10-09T01:16:18;11.70;99.90
3334;DHT22;1679;50.392;8.008;2023-10-09T01:18:48;11.70;99.90
3334;DHT22;1679;50.392;8.008;2023-10-09T01:21:17;11.60;99.90
3334;DHT22;1679;50.392;8.008;2023-10-09T01:23:47;11.60;99.90
3334;DHT22;1679;50.392;8.008;2023-10-09T01:26:34;11.60;99.90
3334;DHT22;1679;50.392;8.008;2023-10-09T01:29:14;11.60;99.90
3334;DHT22;1679;50.392;8.008;2023-10-09T01:31:50;11.60;99.90
3334;DHT22;1679;50.392;8.008;2023-10-09T01:34:30;11.60;99.90
3334;DHT22;1679;50.392;8.008;2023-10-09T01:37:17;11.60;99.90
3334;DHT22;1679;50.392;8.008;2023-10-09T01:39:57;11.70;99.90
3334;DHT22;1679;50.392;8.008;2023-10-09T01:42:45;11.70;99.90
3334;DHT22;1679;50.392;8.008;2023-10-09T01:45:12;11.70;99.90
3334;DHT22;1679;50.392;8.008;2023-10-09T01:47:40;11.70;99.90
3334;DHT22;1679;50.392;8.008;2023-10-09T01:50:07;11.70;99.90
3334;DHT22;1679;50.392;8.008;2023-10-09T01:52:45;11.70;99.90
3334;DHT22;1679;50.392;8.008;2023-10-09T01:55:11;11.70;99.90
3334;DHT22;1679;50.392;8.008;2023-10-09T01:57:42;11.70;99.90
3334;DHT22;1679;50.392;8.008;2023-10-09T02:00:10;11.70;99.90
3334;DHT22;1679;50.392;8.008;2023-10-09T02:02:50;11.70;99.90
3334;DHT22;1679;50.392;8.008;2023-10-09T02:05:16;11.70;99.90
3334;DHT22;1679;50.392;8.008;2023-10-09T02:07:42;11.70;99.90
3334;DHT22;1679;50.392;8.008;2023-10-09T02:10:18;11.70;99.90
3334;DHT22;1679;50.392;8.008;2023-10-09T02:13:05;11.70;99.90
3334;DHT22;1679;50.392;8.008;2023-10-09T02:15:37;11.60;99.90
3334;DHT22;1679;50.392;8.008;2023-10-09T02:21:10;11.60;99.90
3334;DHT22;1679;50.392;8.008;2023-10-09T02:23:36;11.60;99.90
3334;DHT22;1679;50.392;8.008;2023-10-09T02:26:23;11.60;99.90
3334;DHT22;1679;50.392;8.008;2023-10-09T02:28:53;11.50;99.90
3334;DHT22;1679;50.392;8.008;2023-10-09T02:31:39;11.50;99.90
3334;DHT22;1679;50.392;8.008;2023-10-09T02:34:20;11.40;99.90
3334;DHT22;1679;50.392;8.008;2023-10-09T02:36:50;11.40;99.90
3334;DHT22;1679;50.392;8.008;2023-10-09T02:39:24;11.40;99.90
3334;DHT22;1679;50.392;8.008;2023-10-09T02:41:52;11.40;99.90
3334;DHT22;1679;50.392;8.008;2023-10-09T02:44:20;11.30;99.90
3334;DHT22;1679;50.392;8.008;2023-10-09T02:46:50;11.30;99.90
3334;DHT22;1679;50.392;8.008;2023-10-09T02:49:17;11.30;99.90
3334;DHT22;1679;50.392;8.008;2023-10-09T02:51:42;11.40;99.90
3334;DHT22;1679;50.392;8.008;2023-10-09T02:54:08;11.40;99.90
3334;DHT22;1679;50.392;8.008;2023-10-09T02:56:47;11.40;99.90
3334;DHT22;1679;50.392;8.008;2023-10-09T02:59:22;11.40;99.90
3334;DHT22;1679;50.392;8.008;2023-10-09T03:01:48;11.50;99.90
3334;DHT22;1679;50.392;8.008;2023-10-09T03:04:14;11.50;99.90
3334;DHT22;1679;50.392;8.008;2023-10-09T03:06:41;11.50;99.90
3334;DHT22;1679;50.392;8.008;2023-10-09T03:09:22;11.50;99.90
3334;DHT22;1679;50.392;8.008;2023-10-09T03:11:57;11.50;99.90
3334;DHT22;1679;50.392;8.008;2023-10-09T03:14:32;11.50;99.90
3334;DHT22;1679;50.392;8.008;2023-10-09T03:17:00;11.50;99.90
3334;DHT22;1679;50.392;8.008;2023-10-09T03:19:30;11.50;99.90
3334;DHT22;1679;50.392;8.008;2023-10-09T03:21:56;11.50;99.90
3334;DHT22;1679;50.392;8.008;2023-10-09T03:24:26;11.50;99.90
3334;DHT22;1679;50.392;8.008;2023-10-09T03:27:12;11.50;99.90
3334;DHT22;1679;50.392;8.008;2023-10-09T03:29:39;11.50;99.90
3334;DHT22;1679;50.392;8.008;2023-10-09T03:32:05;11.50;99.90
3334;DHT22;1679;50.392;8.008;2023-10-09T03:34:32;11.60;99.90
3334;DHT22;1679;50.392;8.008;2023-10-09T03:36:58;11.50;99.90
3334;DHT22;1679;50.392;8.008;2023-10-09T03:39:31;11.50;99.90
3334;DHT22;1679;50.392;8.008;2023-10-09T03:42:07;11.50;99.90
3334;DHT22;1679;50.392;8.008;2023-10-09T03:44:40;11.60;99.90
3334;DHT22;1679;50.392;8.008;2023-10-09T03:47:13;11.60;99.90
3334;DHT22;1679;50.392;8.008;2023-10-09T03:49:43;11.60;99.90
3334;DHT22;1679;50.392;8.008;2023-10-09T03:52:09;11.60;99.90
3334;DHT22;1679;50.392;8.008;2023-10-09T03:54:35;11.60;99.90
3334;DHT22;1679;50.392;8.008;2023-10-09T03:57:01;11.60;99.90
3334;DHT22;1679;50.392;8.008;2023-10-09T03:59:27;11.60;99.90
3334;DHT22;1679;50.392;8.008;2023-10-09T04:01:56;11.60;99.90
3334;DHT22;1679;50.392;8.008;2023-10-09T04:04:24;11.60;99.90
3334;DHT22;1679;50.392;8.008;2023-10-09T04:06:50;11.60;99.90
3334;DHT22;1679;50.392;8.008;2023-10-09T04:09:19;11.60;99.90
3334;DHT22;1679;50.392;8.008;2023-10-09T04:11:51;11.60;99.90
3334;DHT22;1679;50.392;8.008;2023-10-09T04:14:39;11.60;99.90
3334;DHT22;1679;50.392;8.008;2023-10-09T04:17:23;11.60;99.90
3334;DHT22;1679;50.392;8.008;2023-10-09T04:19:48;11.60;99.90
3334;DHT22;1679;50.392;8.008;2023-10-09T04:22:37;11.60;99.90
3334;DHT22;1679;50.392;8.008;2023-10-09T04:25:08;11.60;99.90
3334;DHT22;1679;50.392;8.008;2023-10-09T04:27:43;11.60;99.90
3334;DHT22;1679;50.392;8.008;2023-10-09T04:30:10;11.60;99.90
3334;DHT22;1679;50.392;8.008;2023-10-09T04:32:41;11.60;99.90
3334;DHT22;1679;50.392;8.008;2023-10-09T04:35:10;11.60;99.90
3334;DHT22;1679;50.392;8.008;2023-10-09T04:37:45;11.70;99.90
3334;DHT22;1679;50.392;8.008;2023-10-09T04:40:18;11.70;99.90
3334;DHT22;1679;50.392;8.008;2023-10-09T04:43:02;11.70;99.90
3334;DHT22;1679;50.392;8.008;2023-10-09T04:45:35;11.70;99.90
3334;DHT22;1679;50.392;8.008;2023-10-09T04:48:27;11.70;99.90
3334;DHT22;1679;50.392;8.008;2023-10-09T04:51:05;11.70;99.90
3334;DHT22;1679;50.392;8.008;2023-10-09T04:53:49;11.70;99.90
3334;DHT22;1679;50.392;8.008;2023-10-09T04:56:33;11.80;99.90
3334;DHT22;1679;50.392;8.008;2023-10-09T04:58:59;11.80;99.90
3334;DHT22;1679;50.392;8.008;2023-10-09T05:01:33;11.80;99.90
3334;DHT22;1679;50.392;8.008;2023-10-09T05:04:09;11.70;99.90
3334;DHT22;1679;50.392;8.008;2023-10-09T05:06:52;11.70;99.90
3334;DHT22;1679;50.392;8.008;2023-10-09T05:09:21;11.70;99.90
3334;DHT22;1679;50.392;8.008;2023-10-09T05:11:47;11.70;99.90
3334;DHT22;1679;50.392;8.008;2023-10-09T05:14:22;11.70;99.90
3334;DHT22;1679;50.392;8.008;2023-10-09T05:17:04;11.60;99.90
3334;DHT22;1679;50.392;8.008;2023-10-09T05:19:32;11.70;99.90
3334;DHT22;1679;50.392;8.008;2023-10-09T05:22:16;11.70;99.90
3334;DHT22;1679;50.392;8.008;2023-10-09T05:25:02;11.60;99.90
3334;DHT22;1679;50.392;8.008;2023-10-09T05:27:28;11.60;99.90
3334;DHT22;1679;50.392;8.008;2023-10-09T05:30:15;11.70;99.90
3334;DHT22;1679;50.392;8.008;2023-10-09T05:32:56;11.70;99.90
3334;DHT22;1679;50.392;8.008;2023-10-09T05:35:25;11.70;99.90
3334;DHT22;1679;50.392;8.008;2023-10-09T05:38:07;11.70;99.90
3334;DHT22;1679;50.392;8.008;2023-10-09T05:40:41;11.80;99.90
3334;DHT22;1679;50.392;8.008;2023-10-09T05:43:09;11.80;99.90
3334;DHT22;1679;50.392;8.008;2023-10-09T05:45:55;11.80;99.90
3334;DHT22;1679;50.392;8.008;2023-10-09T05:48:41;11.80;99.90
3334;DHT22;1679;50.392;8.008;2023-10-09T05:51:07;11.80;99.90
3334;DHT22;1679;50.392;8.008;2023-10-09T05:53:45;11.80;99.90
3334;DHT22;1679;50.392;8.008;2023-10-09T05:56:11;11.80;99.90
3334;DHT22;1679;50.392;8.008;2023-10-09T05:58:56;11.80;99.90
3334;DHT22;1679;50.392;8.008;2023-10-09T06:01:40;11.80;99.90
3334;DHT22;1679;50.392;8.008;2023-10-09T06:04:24;11.80;99.90
3334;DHT22;1679;50.392;8.008;2023-10-09T06:07:11;11.90;99.90
3334;DHT22;1679;50.392;8.008;2023-10-09T06:09:39;11.90;99.90
3334;DHT22;1679;50.392;8.008;2023-10-09T06:12:19;11.90;99.90
3334;DHT22;1679;50.392;8.008;2023-10-09T06:15:15;11.90;99.90
3334;DHT22;1679;50.392;8.008;2023-10-09T06:17:59;12.00;99.90
3334;DHT22;1679;50.392;8.008;2023-10-09T06:20:47;12.00;99.90
3334;DHT22;1679;50.392;8.008;2023-10-09T06:23:32;12.00;99.90
3334;DHT22;1679;50.392;8.008;2023-10-09T06:26:22;12.00;99.90
3334;DHT22;1679;50.392;8.008;2023-10-09T06:28:52;12.00;99.90
3334;DHT22;1679;50.392;8.008;2023-10-09T06:31:36;12.00;99.90
3334;DHT22;1679;50.392;8.008;2023-10-09T06:34:20;12.00;99.90
3334;DHT22;1679;50.392;8.008;2023-10-09T06:36:57;12.10;99.90
3334;DHT22;1679;50.392;8.008;2023-10-09T06:39:28;12.10;99.90
3334;DHT22;1679;50.392;8.008;2023-10-09T06:42:12;12.10;99.90
3334;DHT22;1679;50.392;8.008;2023-10-09T06:45:12;12.20;99.90
3334;DHT22;1679;50.392;8.008;2023-10-09T06:47:49;12.20;99.90
3334;DHT22;1679;50.392;8.008;2023-10-09T06:50:22;12.20;99.90
3334;DHT22;1679;50.392;8.008;2023-10-09T06:52:48;12.20;99.90
3334;DHT22;1679;50.392;8.008;2023-10-09T06:55:43;12.30;99.90
3334;DHT22;1679;50.392;8.008;2023-10-09T06:58:19;12.30;99.90
3334;DHT22;1679;50.392;8.008;2023-10-09T07:01:07;12.40;99.90
3334;DHT22;1679;50.392;8.008;2023-10-09T07:03:45;12.50;99.90
3334;DHT22;1679;50.392;8.008;2023-10-09T07:06:25;12.60;99.90
3334;DHT22;1679;50.392;8.008;2023-10-09T07:08:57;12.60;99.90
3334;DHT22;1679;50.392;8.008;2023-10-09T07:11:42;12.70;99.90
3334;DHT22;1679;50.392;8.008;2023-10-09T07:14:09;12.80;99.90
3334;DHT22;1679;50.392;8.008;2023-10-09T07:17:04;12.90;99.90
3334;DHT22;1679;50.392;8.008;2023-10-09T07:19:42;12.90;99.90
3334;DHT22;1679;50.392;8.008;2023-10-09T07:22:08;13.10;99.90
3334;DHT22;1679;50.392;8.008;2023-10-09T07:24:50;13.20;99.90
3334;DHT22;1679;50.392;8.008;2023-10-09T07:27:26;13.30;99.90
3334;DHT22;1679;50.392;8.008;2023-10-09T07:30:16;13.40;99.90
3334;DHT22;1679;50.392;8.008;2023-10-09T07:32:57;13.50;99.90
3334;DHT22;1679;50.392;8.008;2023-10-09T07:35:49;13.50;99.90
3334;DHT22;1679;50.392;8.008;2023-10-09T07:38:23;13.40;99.90
3334;DHT22;1679;50.392;8.008;2023-10-09T07:40:55;13.30;99.90
3334;DHT22;1679;50.392;8.008;2023-10-09T07:43:26;13.30;99.90
3334;DHT22;1679;50.392;8.008;2023-10-09T07:45:54;13.30;99.90
3334;DHT22;1679;50.392;8.008;2023-10-09T07:48:40;13.30;99.90
3334;DHT22;1679;50.392;8.008;2023-10-09T07:51:22;13.40;99.90
3334;DHT22;1679;50.392;8.008;2023-10-09T07:53:58;13.50;99.90
3334;DHT22;1679;50.392;8.008;2023-10-09T07:56:33;13.70;99.90
3334;DHT22;1679;50.392;8.008;2023-10-09T07:59:04;14.00;99.90
3334;DHT22;1679;50.392;8.008;2023-10-09T08:01:39;14.10;99.90
3334;DHT22;1679;50.392;8.008;2023-10-09T08:04:17;14.20;99.90
3334;DHT22;1679;50.392;8.008;2023-10-09T08:06:46;14.30;99.90
3334;DHT22;1679;50.392;8.008;2023-10-09T08:09:13;14.40;99.90
3334;DHT22;1679;50.392;8.008;2023-10-09T08:11:44;14.40;99.90
3334;DHT22;1679;50.392;8.008;2023-10-09T08:14:14;14.40;99.90
3334;DHT22;1679;50.392;8.008;2023-10-09T08:16:59;14.40;99.90
3334;DHT22;1679;50.392;8.008;2023-10-09T08:19:50;14.40;99.90
3334;DHT22;1679;50.392;8.008;2023-10-09T08:22:30;14.50;99.90
3334;DHT22;1679;50.392;8.008;2023-10-09T08:24:56;14.50;99.90
3334;DHT22;1679;50.392;8.008;2023-10-09T08:27:26;14.60;99.90
3334;DHT22;1679;50.392;8.008;2023-10-09T08:30:02;14.70;99.90
3334;DHT22;1679;50.392;8.008;2023-10-09T08:32:47;14.80;99.90
3334;DHT22;1679;50.392;8.008;2023-10-09T08:35:33;15.00;99.90
3334;DHT22;1679;50.392;8.008;2023-10-09T08:38:03;15.20;99.90
3334;DHT22;1679;50.392;8.008;2023-10-09T08:40:38;15.40;99.90
3334;DHT22;1679;50.392;8.008;2023-10-09T08:43:17;15.60;99.90
3334;DHT22;1679;50.392;8.008;2023-10-09T08:45:48;15.60;99.90
3334;DHT22;1679;50.392;8.008;2023-10-09T08:48:14;15.70;99.90
3334;DHT22;1679;50.392;8.008;2023-10-09T08:50:48;15.80;99.90
3334;DHT22;1679;50.392;8.008;2023-10-09T08:53:15;15.80;99.90
3334;DHT22;1679;50.392;8.008;2023-10-09T08:55:43;15.90;99.90
3334;DHT22;1679;50.392;8.008;2023-10-09T08:58:09;15.90;99.90
3334;DHT22;1679;50.392;8.008;2023-10-09T09:00:53;15.90;99.90
3334;DHT22;1679;50.392;8.008;2023-10-09T09:03:21;16.00;99.90
3334;DHT22;1679;50.392;8.008;2023-10-09T09:05:58;16.00;99.90
3334;DHT22;1679;50.392;8.008;2023-10-09T09:08:27;16.00;99.90
3334;DHT22;1679;50.392;8.008;2023-10-09T09:11:03;16.10;99.90
3334;DHT22;1679;50.392;8.008;2023-10-09T09:13:45;16.30;99.90
3334;DHT22;1679;50.392;8.008;2023-10-09T09:16:22;16.40;99.90
3334;DHT22;1679;50.392;8.008;2023-10-09T09:18:50;16.50;99.90
3334;DHT22;1679;50.392;8.008;2023-10-09T09:21:33;16.60;99.90
3334;DHT22;1679;50.392;8.008;2023-10-09T09:24:10;16.60;99.90
3334;DHT22;1679;50.392;8.008;2023-10-09T09:26:50;16.70;99.90
3334;DHT22;1679;50.392;8.008;2023-10-09T09:32:03;16.90;99.90
3334;DHT22;1679;50.392;8.008;2023-10-09T09:34:45;17.00;99.90
3334;DHT22;1679;50.392;8.008;2023-10-09T09:37:31;16.90;99.90
3334;DHT22;1679;50.392;8.008;2023-10-09T09:40:10;16.90;99.90
3334;DHT22;1679;50.392;8.008;2023-10-09T09:42:43;16.90;99.90
3334;DHT22;1679;50.392;8.008;2023-10-09T09:45:11;17.00;99.90
3334;DHT22;1679;50.392;8.008;2023-10-09T09:47:37;17.00;99.90
3334;DHT22;1679;50.392;8.008;2023-10-09T09:50:05;17.10;99.90
3334;DHT22;1679;50.392;8.008;2023-10-09T09:52:38;17.10;99.90
3334;DHT22;1679;50.392;8.008;2023-10-09T09:55:06;17.10;99.90
3334;DHT22;1679;50.392;8.008;2023-10-09T09:57:33;17.00;99.90
3334;DHT22;1679;50.392;8.008;2023-10-09T10:00:08;17.00;99.90
3334;DHT22;1679;50.392;8.008;2023-10-09T10:02:44;17.10;99.90
3334;DHT22;1679;50.392;8.008;2023-10-09T10:05:11;17.10;99.90
3334;DHT22;1679;50.392;8.008;2023-10-09T10:07:41;17.30;99.90
3334;DHT22;1679;50.392;8.008;2023-10-09T10:13:13;17.50;99.90
3334;DHT22;1679;50.392;8.008;2023-10-09T10:18:55;18.00;99.90
3334;DHT22;1679;50.392;8.008;2023-10-09T10:21:37;18.20;99.90
3334;DHT22;1679;50.392;8.008;2023-10-09T10:35:21;19.00;99.90
3334;DHT22;1679;50.392;8.008;2023-10-09T10:38:01;19.00;99.90
3334;DHT22;1679;50.392;8.008;2023-10-09T10:40:37;19.10;99.90
3334;DHT22;1679;50.392;8.008;2023-10-09T10:43:16;19.20;99.90
3334;DHT22;1679;50.392;8.008;2023-10-09T10:46:08;19.30;99.90
3334;DHT22;1679;50.392;8.008;2023-10-09T10:48:49;19.40;99.90
3334;DHT22;1679;50.392;8.008;2023-10-09T10:51:15;19.50;99.90
3334;DHT22;1679;50.392;8.008;2023-10-09T10:53:53;19.70;99.90
3334;DHT22;1679;50.392;8.008;2023-10-09T10:56:23;19.80;99.90
3334;DHT22;1679;50.392;8.008;2023-10-09T10:59:01;19.80;99.90
3334;DHT22;1679;50.392;8.008;2023-10-09T11:01:33;19.70;99.90
3334;DHT22;1679;50.392;8.008;2023-10-09T11:04:22;19.70;99.90
3334;DHT22;1679;50.392;8.008;2023-10-09T11:06:59;19.60;99.90
3334;DHT22;1679;50.392;8.008;2023-10-09T11:09:57;19.70;99.90
3334;DHT22;1679;50.392;8.008;2023-10-09T11:12:44;19.80;99.90
3334;DHT22;1679;50.392;8.008;2023-10-09T11:15:33;19.80;99.90
3334;DHT22;1679;50.392;8.008;2023-10-09T11:18:12;20.00;99.90
3334;DHT22;1679;50.392;8.008;2023-10-09T11:20:56;20.10;99.90
3334;DHT22;1679;50.392;8.008;2023-10-09T11:23:28;20.00;99.90
3334;DHT22;1679;50.392;8.008;2023-10-09T11:26:03;20.10;99.90
3334;DHT22;1679;50.392;8.008;2023-10-09T11:29:13;20.10;99.90
3334;DHT22;1679;50.392;8.008;2023-10-09T11:32:01;20.20;99.90
3334;DHT22;1679;50.392;8.008;2023-10-09T11:34:27;20.30;99.90
3334;DHT22;1679;50.392;8.008;2023-10-09T11:37:14;20.40;99.90
3334;DHT22;1679;50.392;8.008;2023-10-09T11:39:57;20.50;99.90
3334;DHT22;1679;50.392;8.008;2023-10-09T11:42:24;20.50;99.90
3334;DHT22;1679;50.392;8.008;2023-10-09T11:45:21;20.60;99.90
3334;DHT22;1679;50.392;8.008;2023-10-09T11:47:49;20.50;99.90
3334;DHT22;1679;50.392;8.008;2023-10-09T11:53:10;20.50;99.90
3334;DHT22;1679;50.392;8.008;2023-10-09T11:55:48;20.50;99.90
3334;DHT22;1679;50.392;8.008;2023-10-09T11:58:19;20.60;99.90
3334;DHT22;1679;50.392;8.008;2023-10-09T12:00:50;20.60;99.90
3334;DHT22;1679;50.392;8.008;2023-10-09T12:03:17;20.70;99.90
3334;DHT22;1679;50.392;8.008;2023-10-09T12:05:47;20.80;99.90
3334;DHT22;1679;50.392;8.008;2023-10-09T12:08:12;20.80;99.90
3334;DHT22;1679;50.392;8.008;2023-10-09T12:10:41;20.90;99.90
3334;DHT22;1679;50.392;8.008;2023-10-09T12:13:06;20.90;99.90
3334;DHT22;1679;50.392;8.008;2023-10-09T12:15:33;20.90;99.90
3334;DHT22;1679;50.392;8.008;2023-10-09T12:18:07;21.00;99.90
3334;DHT22;1679;50.392;8.008;2023-10-09T12:20:41;21.10;99.90
3334;DHT22;1679;50.392;8.008;2023-10-09T12:23:07;21.10;99.90
3334;DHT22;1679;50.392;8.008;2023-10-09T12:25:33;21.20;99.90
3334;DHT22;1679;50.392;8.008;2023-10-09T12:28:02;21.20;99.90
3334;DHT22;1679;50.392;8.008;2023-10-09T12:30:31;21.20;99.90
3334;DHT22;1679;50.392;8.008;2023-10-09T12:33:03;21.20;99.90
3334;DHT22;1679;50.392;8.008;2023-10-09T12:35:29;21.30;99.90
3334;DHT22;1679;50.392;8.008;2023-10-09T12:37:59;21.40;99.90
3334;DHT22;1679;50.392;8.008;2023-10-09T12:40:26;21.40;99.90
3334;DHT22;1679;50.392;8.008;2023-10-09T12:42:57;21.50;99.90
3334;DHT22;1679;50.392;8.008;2023-10-09T12:45:26;21.50;99.90
3334;DHT22;1679;50.392;8.008;2023-10-09T12:47:55;21.50;99.90
3334;DHT22;1679;50.392;8.008;2023-10-09T12:50:27;21.60;99.90
3334;DHT22;1679;50.392;8.008;2023-10-09T12:52:59;21.60;99.90
3334;DHT22;1679;50.392;8.008;2023-10-09T12:55:28;21.60;99.90
3334;DHT22;1679;50.392;8.008;2023-10-09T12:58:06;21.60;99.90
3334;DHT22;1679;50.392;8.008;2023-10-09T13:00:37;21.60;99.90
3334;DHT22;1679;50.392;8.008;2023-10-09T13:03:06;21.60;99.90
3334;DHT22;1679;50.392;8.008;2023-10-09T13:05:52;21.50;99.90
3334;DHT22;1679;50.392;8.008;2023-10-09T13:08:26;21.50;99.90
3334;DHT22;1679;50.392;8.008;2023-10-09T13:11:04;21.50;99.90
3334;DHT22;1679;50.392;8.008;2023-10-09T13:13:39;21.50;99.90
3334;DHT22;1679;50.392;8.008;2023-10-09T13:16:17;21.50;99.90
3334;DHT22;1679;50.392;8.008;2023-10-09T13:18:50;21.50;99.90
3334;DHT22;1679;50.392;8.008;2023-10-09T13:21:25;21.50;99.90
3334;DHT22;1679;50.392;8.008;2023-10-09T13:23:57;21.50;99.90
3334;DHT22;1679;50.392;8.008;2023-10-09T13:26:23;21.40;99.90
3334;DHT22;1679;50.392;8.008;2023-10-09T13:29:02;21.40;99.90
3334;DHT22;1679;50.392;8.008;2023-10-09T13:31:29;21.40;99.90
3334;DHT22;1679;50.392;8.008;2023-10-09T13:33:58;21.30;99.90
3334;DHT22;1679;50.392;8.008;2023-10-09T13:36:25;21.30;99.90
3334;DHT22;1679;50.392;8.008;2023-10-09T13:38:58;21.20;99.90
3334;DHT22;1679;50.392;8.008;2023-10-09T13:41:28;21.20;99.90
3334;DHT22;1679;50.392;8.008;2023-10-09T13:43:55;21.10;99.90
3334;DHT22;1679;50.392;8.008;2023-10-09T13:46:23;21.10;99.90
3334;DHT22;1679;50.392;8.008;2023-10-09T13:48:49;21.10;99.90
3334;DHT22;1679;50.392;8.008;2023-10-09T13:51:15;21.10;99.90
3334;DHT22;1679;50.392;8.008;2023-10-09T13:53:49;21.00;99.90
3334;DHT22;1679;50.392;8.008;2023-10-09T13:56:19;20.90;99.90
3334;DHT22;1679;50.392;8.008;2023-10-09T13:58:51;20.90;99.90
3334;DHT22;1679;50.392;8.008;2023-10-09T14:01:18;20.90;99.90
3334;DHT22;1679;50.392;8.008;2023-10-09T14:03:58;20.90;99.90
3334;DHT22;1679;50.392;8.008;2023-10-09T14:06:25;20.80;99.90
3334;DHT22;1679;50.392;8.008;2023-10-09T14:09:00;20.80;99.90
3334;DHT22;1679;50.392;8.008;2023-10-09T14:11:29;20.70;99.90
3334;DHT22;1679;50.392;8.008;2023-10-09T14:13:55;20.80;99.90
3334;DHT22;1679;50.392;8.008;2023-10-09T14:16:21;20.70;99.90
3334;DHT22;1679;50.392;8.008;2023-10-09T14:18:59;20.80;99.90
3334;DHT22;1679;50.392;8.008;2023-10-09T14:21:27;20.80;99.90
3334;DHT22;1679;50.392;8.008;2023-10-09T14:23:57;20.80;99.90
3334;DHT22;1679;50.392;8.008;2023-10-09T14:26:26;20.80;99.90
3334;DHT22;1679;50.392;8.008;2023-10-09T14:28:53;20.70;99.90
3334;DHT22;1679;50.392;8.008;2023-10-09T14:31:25;20.70;99.90
3334;DHT22;1679;50.392;8.008;2023-10-09T14:33:57;20.70;99.90
3334;DHT22;1679;50.392;8.008;2023-10-09T14:36:24;20.70;99.90
3334;DHT22;1679;50.392;8.008;2023-10-09T14:38:53;20.70;99.90
3334;DHT22;1679;50.392;8.008;2023-10-09T14:41:20;20.70;99.90
3334;DHT22;1679;50.392;8.008;2023-10-09T14:43:51;20.60;99.90
3334;DHT22;1679;50.392;8.008;2023-10-09T14:46:18;20.60;99.90
3334;DHT22;1679;50.392;8.008;2023-10-09T14:48:49;20.50;99.90
3334;DHT22;1679;50.392;8.008;2023-10-09T14:51:14;20.50;99.90
3334;DHT22;1679;50.392;8.008;2023-10-09T14:53:40;20.50;99.90
3334;DHT22;1679;50.392;8.008;2023-10-09T14:56:06;20.40;99.90
3334;DHT22;1679;50.392;8.008;2023-10-09T14:58:35;20.40;99.90
3334;DHT22;1679;50.392;8.008;2023-10-09T15:01:08;20.30;99.90
3334;DHT22;1679;50.392;8.008;2023-10-09T15:03:35;20.20;99.90
3334;DHT22;1679;50.392;8.008;2023-10-09T15:06:03;20.10;99.90
3334;DHT22;1679;50.392;8.008;2023-10-09T15:08:28;20.00;99.90
3334;DHT22;1679;50.392;8.008;2023-10-09T15:10:55;19.90;99.90
3334;DHT22;1679;50.392;8.008;2023-10-09T15:13:31;19.80;99.90
3334;DHT22;1679;50.392;8.008;2023-10-09T15:15:56;19.70;99.90
3334;DHT22;1679;50.392;8.008;2023-10-09T15:18:22;19.60;99.90
3334;DHT22;1679;50.392;8.008;2023-10-09T15:20:49;19.50;99.90
3334;DHT22;1679;50.392;8.008;2023-10-09T15:23:14;19.40;99.90
3334;DHT22;1679;50.392;8.008;2023-10-09T15:25:40;19.40;99.90
3334;DHT22;1679;50.392;8.008;2023-10-09T15:28:08;19.40;99.90
3334;DHT22;1679;50.392;8.008;2023-10-09T15:30:35;19.40;99.90
3334;DHT22;1679;50.392;8.008;2023-10-09T15:33:06;19.30;99.90
3334;DHT22;1679;50.392;8.008;2023-10-09T15:35:32;19.20;99.90
3334;DHT22;1679;50.392;8.008;2023-10-09T15:38:02;19.10;99.90
3334;DHT22;1679;50.392;8.008;2023-10-09T15:40:31;19.10;99.90
3334;DHT22;1679;50.392;8.008;2023-10-09T15:43:01;19.10;99.90
3334;DHT22;1679;50.392;8.008;2023-10-09T15:45:27;19.00;99.90
3334;DHT22;1679;50.392;8.008;2023-10-09T15:47:55;19.00;99.90
3334;DHT22;1679;50.392;8.008;2023-10-09T15:50:22;18.90;99.90
3334;DHT22;1679;50.392;8.008;2023-10-09T15:52:52;18.70;99.90
3334;DHT22;1679;50.392;8.008;2023-10-09T15:55:19;18.60;99.90
3334;DHT22;1679;50.392;8.008;2023-10-09T15:57:46;18.50;99.90
3334;DHT22;1679;50.392;8.008;2023-10-09T16:00:17;18.50;99.90
3334;DHT22;1679;50.392;8.008;2023-10-09T16:02:48;18.50;99.90
3334;DHT22;1679;50.392;8.008;2023-10-09T16:05:14;18.30;99.90
3334;DHT22;1679;50.392;8.008;2023-10-09T16:07:42;18.30;99.90
3334;DHT22;1679;50.392;8.008;2023-10-09T16:10:08;18.30;99.90
3334;DHT22;1679;50.392;8.008;2023-10-09T16:12:37;18.30;99.90
3334;DHT22;1679;50.392;8.008;2023-10-09T16:15:03;18.20;99.90
3334;DHT22;1679;50.392;8.008;2023-10-09T16:17:33;18.20;99.90
3334;DHT22;1679;50.392;8.008;2023-10-09T16:20:00;18.10;99.90
3334;DHT22;1679;50.392;8.008;2023-10-09T16:22:26;18.10;99.90
3334;DHT22;1679;50.392;8.008;2023-10-09T16:24:58;18.10;99.90
3334;DHT22;1679;50.392;8.008;2023-10-09T16:27:25;18.00;99.90
3334;DHT22;1679;50.392;8.008;2023-10-09T16:29:52;17.90;99.90
3334;DHT22;1679;50.392;8.008;2023-10-09T16:32:19;17.90;99.90
3334;DHT22;1679;50.392;8.008;2023-10-09T16:34:49;17.80;99.90
3334;DHT22;1679;50.392;8.008;2023-10-09T16:37:15;17.70;99.90
3334;DHT22;1679;50.392;8.008;2023-10-09T16:39:41;17.70;99.90
3334;DHT22;1679;50.392;8.008;2023-10-09T16:42:07;17.60;99.90
3334;DHT22;1679;50.392;8.008;2023-10-09T16:44:36;17.60;99.90
3334;DHT22;1679;50.392;8.008;2023-10-09T16:47:03;17.60;99.90
3334;DHT22;1679;50.392;8.008;2023-10-09T16:49:29;17.60;99.90
3334;DHT22;1679;50.392;8.008;2023-10-09T16:51:56;17.60;99.90
3334;DHT22;1679;50.392;8.008;2023-10-09T16:54:22;17.50;99.90
3334;DHT22;1679;50.392;8.008;2023-10-09T16:56:48;17.50;99.90
3334;DHT22;1679;50.392;8.008;2023-10-09T16:59:17;17.50;99.90
3334;DHT22;1679;50.392;8.008;2023-10-09T17:01:46;17.50;99.90
3334;DHT22;1679;50.392;8.008;2023-10-09T17:04:12;17.40;99.90
3334;DHT22;1679;50.392;8.008;2023-10-09T17:06:42;17.40;99.90
3334;DHT22;1679;50.392;8.008;2023-10-09T17:09:09;17.30;99.90